TimeCST,TemperatureF,Dew PointF,Humidity,Sea Level PressureIn,VisibilityMPH,Wind Direction,Wind SpeedMPH,Gust SpeedMPH,PrecipitationIn,Events,Conditions,WindDirDegrees,DateUTC
12:52 AM,30.9,26.1,82,30.39,10.0,Calm,Calm,-,N/A,,Clear,0,2012-11-14 06:52:00
1:52 AM,28.9,25.0,85,30.40,10.0,Calm,Calm,-,N/A,,Clear,0,2012-11-14 07:52:00
2:52 AM,30.0,24.1,79,30.40,10.0,Calm,Calm,-,N/A,,Clear,0,2012-11-14 08:52:00
3:52 AM,28.0,24.1,85,30.40,10.0,Calm,Calm,-,N/A,,Clear,0,2012-11-14 09:52:00
4:52 AM,28.0,24.1,85,30.40,10.0,Calm,Calm,-,N/A,,Clear,0,2012-11-14 10:52:00
5:52 AM,26.1,23.0,88,30.42,10.0,Calm,Calm,-,N/A,,Clear,0,2012-11-14 11:52:00
6:52 AM,26.1,21.9,84,30.43,10.0,Calm,Calm,-,N/A,,Clear,0,2012-11-14 12:52:00
7:52 AM,30.9,27.0,85,30.43,10.0,Calm,Calm,-,N/A,,Clear,0,2012-11-14 13:52:00
8:52 AM,42.1,28.9,60,30.44,10.0,SSE,4.6,-,N/A,,Clear,160,2012-11-14 14:52:00
9:52 AM,48.0,30.0,50,30.43,10.0,Variable,6.9,-,N/A,,Clear,0,2012-11-14 15:52:00
10:52 AM,52.0,28.9,41,30.42,10.0,South,6.9,-,N/A,,Clear,180,2012-11-14 16:52:00
11:52 AM,55.0,28.0,35,30.39,10.0,SSW,8.1,-,N/A,,Clear,200,2012-11-14 17:52:00
12:52 PM,57.0,27.0,32,30.36,10.0,South,8.1,-,N/A,,Clear,190,2012-11-14 18:52:00
1:52 PM,57.9,27.0,31,30.35,10.0,SSW,10.4,-,N/A,,Clear,200,2012-11-14 19:52:00
2:52 PM,57.9,26.1,30,30.32,10.0,South,5.8,16.1,N/A,,Clear,170,2012-11-14 20:52:00
3:52 PM,57.0,26.1,30,30.32,10.0,South,6.9,16.1,N/A,,Clear,170,2012-11-14 21:52:00
4:52 PM,53.1,26.1,35,30.30,10.0,Calm,Calm,-,N/A,,Clear,0,2012-11-14 22:52:00
5:52 PM,43.0,27.0,53,30.31,10.0,Calm,Calm,-,N/A,,Clear,0,2012-11-14 23:52:00
6:52 PM,37.9,28.0,68,30.32,10.0,Calm,Calm,-,N/A,,Clear,0,2012-11-15 00:52:00
7:52 PM,44.1,27.0,51,30.31,10.0,Calm,Calm,-,N/A,,Clear,0,2012-11-15 01:52:00
8:52 PM,43.0,27.0,53,30.31,10.0,SE,3.5,-,N/A,,Clear,140,2012-11-15 02:52:00
9:52 PM,41.0,28.0,60,30.30,10.0,SE,3.5,-,N/A,,Clear,140,2012-11-15 03:52:00
10:52 PM,41.0,28.0,60,30.29,10.0,SSE,3.5,-,N/A,,Clear,150,2012-11-15 04:52:00